createdAt,value
2022-11-12T00:01:14.207Z,7.43
2022-11-12T00:03:40.790Z,7.78
2022-11-12T00:06:07.545Z,7.70
2022-11-12T00:08:34.128Z,5.95
2022-11-12T00:11:00.741Z,6.18
2022-11-12T00:13:27.325Z,5.35
2022-11-12T00:15:53.909Z,5.63
2022-11-12T00:18:21.285Z,5.85
2022-11-12T00:20:48.079Z,5.35
2022-11-12T00:23:14.647Z,4.85
2022-11-12T00:25:41.250Z,8.25
2022-11-12T00:28:09.761Z,5.28
2022-11-12T00:30:40.426Z,5.68
2022-11-12T00:33:07.734Z,5.72
2022-11-12T00:35:34.448Z,4.82
2022-11-12T00:38:01.355Z,7.43
2022-11-12T00:40:28.798Z,5.57
2022-11-12T00:42:55.399Z,4.63
2022-11-12T00:45:22.519Z,6.05
2022-11-12T00:47:49.108Z,5.30
2022-11-12T00:50:16.417Z,5.32
2022-11-12T00:52:43.401Z,4.85
2022-11-12T00:55:10.262Z,5.57
2022-11-12T00:57:37.044Z,6.07
2022-11-12T01:00:08.163Z,4.28
2022-11-12T01:02:42.439Z,5.18
2022-11-12T01:05:10.332Z,5.22
2022-11-12T01:07:36.898Z,5.60
2022-11-12T01:10:04.131Z,5.13
2022-11-12T01:12:31.506Z,5.10
2022-11-12T01:14:58.067Z,5.47
2022-11-12T01:17:24.665Z,5.38
2022-11-12T01:19:51.250Z,5.63
2022-11-12T01:22:17.784Z,4.80
2022-11-12T01:24:44.644Z,5.85
2022-11-12T01:27:11.204Z,6.32
2022-11-12T01:29:37.781Z,5.28
2022-11-12T01:32:04.437Z,5.22
2022-11-12T01:34:31.003Z,5.78
2022-11-12T01:36:57.732Z,5.47
2022-11-12T01:39:24.462Z,4.97
2022-11-12T01:41:51.151Z,5.00
2022-11-12T01:44:22.012Z,5.35
2022-11-12T01:47:07.777Z,4.90
2022-11-12T01:50:19.311Z,4.85
2022-11-12T01:53:08.032Z,6.70
2022-11-12T01:55:37.281Z,4.85
2022-11-12T01:58:12.488Z,4.80
2022-11-12T02:00:40.539Z,4.75
2022-11-12T02:03:13.539Z,6.25
2022-11-12T02:05:41.051Z,4.82
2022-11-12T02:08:11.103Z,5.13
2022-11-12T02:10:40.009Z,8.40
2022-11-12T02:13:26.862Z,7.05
2022-11-12T02:15:53.685Z,8.15
2022-11-12T02:18:20.392Z,8.85
2022-11-12T02:20:54.067Z,9.95
2022-11-12T02:23:20.692Z,8.52
2022-11-12T02:25:47.271Z,10.43
2022-11-12T02:28:13.960Z,10.18
2022-11-12T02:30:47.388Z,9.52
2022-11-12T02:33:14.214Z,6.07
2022-11-12T02:35:41.347Z,8.50
2022-11-12T02:38:08.973Z,10.13
2022-11-12T02:40:35.554Z,9.15
2022-11-12T02:43:02.249Z,9.98
2022-11-12T02:45:30.698Z,7.28
2022-11-12T02:47:57.282Z,5.68
2022-11-12T02:50:24.007Z,5.63
2022-11-12T02:52:50.679Z,5.80
2022-11-12T02:55:17.328Z,5.72
2022-11-12T02:57:44.247Z,5.65
2022-11-12T03:00:13.103Z,5.30
2022-11-12T03:02:42.871Z,5.82
2022-11-12T03:05:13.541Z,5.43
2022-11-12T03:07:40.521Z,5.80
2022-11-12T03:10:07.488Z,6.03
2022-11-12T03:12:34.331Z,5.40
2022-11-12T03:15:00.879Z,5.55
2022-11-12T03:17:27.464Z,5.65
2022-11-12T03:19:53.996Z,5.30
2022-11-12T03:22:20.513Z,5.40
2022-11-12T03:24:47.116Z,7.70
2022-11-12T03:27:13.692Z,9.82
2022-11-12T03:29:40.283Z,7.55
2022-11-12T03:32:06.934Z,7.93
2022-11-12T03:34:33.490Z,5.80
2022-11-12T03:37:00.058Z,5.70
2022-11-12T03:39:26.592Z,5.70
2022-11-12T03:41:53.149Z,5.28
2022-11-12T03:44:19.712Z,5.40
2022-11-12T03:46:46.263Z,8.23
2022-11-12T03:49:12.824Z,7.65
2022-11-12T03:51:39.485Z,5.00
2022-11-12T03:54:06.217Z,4.80
2022-11-12T03:56:32.772Z,5.07
2022-11-12T03:58:59.359Z,5.55
2022-11-12T04:01:25.999Z,5.75
2022-11-12T04:03:52.607Z,4.63
2022-11-12T04:06:38.219Z,6.70
2022-11-12T04:09:04.848Z,6.40
2022-11-12T04:11:31.462Z,7.13
2022-11-12T04:14:01.271Z,7.75
2022-11-12T04:16:46.503Z,7.35
2022-11-12T04:19:32.247Z,6.07
2022-11-12T04:22:08.402Z,6.25
2022-11-12T04:24:55.494Z,6.57
2022-11-12T04:27:24.467Z,7.35
2022-11-12T04:30:10.543Z,7.28
2022-11-12T04:32:40.137Z,6.13
2022-11-12T04:35:08.796Z,7.85
2022-11-12T04:37:45.548Z,6.65
2022-11-12T04:40:36.759Z,8.98
2022-11-12T04:43:23.705Z,9.00
2022-11-12T04:45:52.673Z,7.53
2022-11-12T04:48:20.203Z,5.75
2022-11-12T04:51:02.583Z,8.65
2022-11-12T04:53:30.737Z,9.55
2022-11-12T04:55:58.845Z,6.70
2022-11-12T04:58:26.243Z,7.38
2022-11-12T05:00:53.254Z,6.88
2022-11-12T05:03:20.105Z,7.93
2022-11-12T05:05:46.679Z,8.38
2022-11-12T05:08:13.340Z,5.38
2022-11-12T05:10:39.932Z,7.18
2022-11-12T05:13:06.631Z,6.25
2022-11-12T05:15:33.324Z,6.35
2022-11-12T05:17:59.969Z,6.88
2022-11-12T05:20:26.609Z,6.45
2022-11-12T05:23:06.699Z,7.30
2022-11-12T05:25:35.710Z,8.45
2022-11-12T05:28:02.342Z,6.60
2022-11-12T05:30:28.917Z,6.95
2022-11-12T05:32:55.556Z,8.10
2022-11-12T05:35:22.197Z,6.82
2022-11-12T05:37:48.750Z,7.30
2022-11-12T05:40:15.315Z,6.63
2022-11-12T05:42:41.925Z,7.57
2022-11-12T05:45:09.213Z,7.88
2022-11-12T05:47:35.796Z,7.93
2022-11-12T05:50:02.463Z,5.95
2022-11-12T05:52:29.075Z,6.80
2022-11-12T05:54:55.638Z,6.07
2022-11-12T05:57:22.220Z,5.00
2022-11-12T05:59:48.754Z,7.70
2022-11-12T06:02:15.385Z,5.50
2022-11-12T06:04:41.993Z,5.72
2022-11-12T06:07:09.262Z,5.78
2022-11-12T06:09:35.947Z,7.53
2022-11-12T06:12:06.267Z,6.82
2022-11-12T06:14:32.875Z,7.28
2022-11-12T06:16:59.440Z,4.43
2022-11-12T06:19:26.001Z,5.78
2022-11-12T06:21:52.598Z,5.07
2022-11-12T06:24:19.298Z,6.65
2022-11-12T06:26:45.953Z,6.10
2022-11-12T06:29:12.673Z,5.32
2022-11-12T06:31:39.448Z,6.43
2022-11-12T06:34:07.145Z,4.82
2022-11-12T06:36:33.721Z,5.30
2022-11-12T06:39:00.356Z,6.55
2022-11-12T06:41:26.930Z,6.35
2022-11-12T06:43:53.478Z,8.55
2022-11-12T06:46:20.075Z,5.88
2022-11-12T06:48:46.628Z,6.28
2022-11-12T06:51:19.360Z,6.13
2022-11-12T06:53:46.749Z,6.13
2022-11-12T06:56:14.183Z,6.03
2022-11-12T06:58:40.957Z,6.60
2022-11-12T07:01:15.779Z,5.30
2022-11-12T07:03:44.159Z,7.15
2022-11-12T07:06:13.857Z,5.93
2022-11-12T07:08:41.893Z,6.15
2022-11-12T07:11:09.282Z,6.18
2022-11-12T07:13:36.432Z,6.53
2022-11-12T07:16:05.101Z,4.88
2022-11-12T07:18:32.838Z,5.45
2022-11-12T07:21:07.841Z,6.25
2022-11-12T07:23:36.681Z,6.30
2022-11-12T07:26:14.853Z,6.35
2022-11-12T07:28:41.542Z,6.55
2022-11-12T07:31:11.544Z,7.13
2022-11-12T07:33:38.447Z,6.13
2022-11-12T07:36:13.056Z,5.53
2022-11-12T07:38:41.614Z,5.75
2022-11-12T07:41:14.754Z,7.85
2022-11-12T07:43:43.307Z,7.00
2022-11-12T07:46:22.320Z,7.82
2022-11-12T07:48:50.328Z,7.22
2022-11-12T07:51:25.575Z,7.15
2022-11-12T07:53:59.022Z,5.97
2022-11-12T07:56:28.860Z,8.77
2022-11-12T07:58:55.637Z,6.82
2022-11-12T08:01:39.592Z,9.05
2022-11-12T08:04:09.366Z,6.80
2022-11-12T08:06:37.192Z,6.47
2022-11-12T08:09:10.831Z,5.85
2022-11-12T08:11:37.436Z,7.88
2022-11-12T08:14:04.382Z,7.20
2022-11-12T08:16:31.114Z,7.63
2022-11-12T08:18:57.768Z,6.82
2022-11-12T08:21:24.454Z,7.03
2022-11-12T08:23:51.149Z,7.78
2022-11-12T08:26:22.639Z,6.95
2022-11-12T08:28:49.291Z,8.18
2022-11-12T08:31:18.771Z,8.07
2022-11-12T08:33:45.769Z,7.80
2022-11-12T08:36:14.604Z,8.77
2022-11-12T08:38:41.595Z,8.02
2022-11-12T08:41:11.232Z,8.27
2022-11-12T08:43:39.292Z,9.23
2022-11-12T08:46:06.112Z,9.70
2022-11-12T08:48:34.407Z,6.60
2022-11-12T08:51:02.836Z,8.88
2022-11-12T08:53:29.412Z,7.75
2022-11-12T08:55:56.693Z,11.15
2022-11-12T08:58:24.929Z,9.25
2022-11-12T09:00:52.351Z,6.95
2022-11-12T09:03:21.795Z,9.10
2022-11-12T09:05:49.013Z,8.93
2022-11-12T09:08:18.893Z,11.40
2022-11-12T09:10:46.159Z,6.30
2022-11-12T09:13:14.072Z,5.18
2022-11-12T09:15:40.722Z,7.30
2022-11-12T09:18:11.764Z,11.05
2022-11-12T09:20:38.323Z,10.40
2022-11-12T09:23:12.943Z,10.32
2022-11-12T09:25:41.202Z,6.63
2022-11-12T09:28:18.184Z,10.30
2022-11-12T09:30:47.591Z,8.18
2022-11-12T09:33:18.857Z,13.60
2022-11-12T09:35:46.631Z,12.35
2022-11-12T09:38:14.953Z,8.50
2022-11-12T09:40:53.476Z,10.63
2022-11-12T09:43:32.937Z,7.57
2022-11-12T09:46:26.546Z,6.90
2022-11-12T09:49:16.341Z,9.60
2022-11-12T09:51:49.793Z,9.65
2022-11-12T09:54:30.329Z,10.88
2022-11-12T09:56:57.103Z,10.60
2022-11-12T09:59:29.680Z,5.40
2022-11-12T10:02:15.286Z,5.95
2022-11-12T10:05:07.907Z,8.15
2022-11-12T10:07:58.321Z,10.45
2022-11-12T10:10:49.461Z,9.40
2022-11-12T10:13:37.340Z,8.35
2022-11-12T10:16:25.462Z,9.30
2022-11-12T10:19:03.335Z,8.55
2022-11-12T10:21:35.549Z,11.40
2022-11-12T10:24:03.698Z,13.90
2022-11-12T10:26:33.069Z,8.00
2022-11-12T10:29:25.235Z,8.10
2022-11-12T10:31:51.818Z,10.88
2022-11-12T10:34:23.941Z,11.00
2022-11-12T10:37:05.070Z,10.18
2022-11-12T10:39:40.749Z,7.75
2022-11-12T10:42:13.170Z,10.57
2022-11-12T10:44:40.842Z,4.80
2022-11-12T10:47:31.881Z,11.32
2022-11-12T10:50:08.869Z,15.23
2022-11-12T10:52:36.031Z,8.90
2022-11-12T10:55:06.775Z,16.90
2022-11-12T10:57:33.458Z,16.60
2022-11-12T11:00:16.834Z,15.70
2022-11-12T11:02:51.122Z,16.15
2022-11-12T11:05:26.531Z,11.73
2022-11-12T11:07:53.070Z,8.15
2022-11-12T11:10:37.916Z,8.40
2022-11-12T11:16:03.174Z,5.90
2022-11-12T11:18:35.564Z,5.50
2022-11-12T11:21:15.690Z,8.32
2022-11-12T11:23:55.926Z,10.20
2022-11-12T11:26:48.542Z,8.20
2022-11-12T11:29:26.795Z,7.75
2022-11-12T11:32:11.559Z,9.23
2022-11-12T11:35:05.913Z,7.00
2022-11-12T11:37:42.395Z,6.47
2022-11-12T11:40:41.548Z,9.73
2022-11-12T11:43:36.307Z,10.05
2022-11-12T11:46:22.754Z,9.88
2022-11-12T11:49:15.431Z,8.05
2022-11-12T11:51:50.757Z,6.80
2022-11-12T11:54:36.134Z,7.80
2022-11-12T11:57:20.228Z,7.63
2022-11-12T12:00:08.255Z,4.82
2022-11-12T12:02:37.475Z,7.38
2022-11-12T12:05:33.395Z,6.90
2022-11-12T12:08:06.410Z,7.47
2022-11-12T12:11:07.029Z,9.02
2022-11-12T12:13:37.465Z,10.90
2022-11-12T12:16:07.155Z,9.77
2022-11-12T12:19:12.002Z,6.65
2022-11-12T12:21:42.017Z,6.88
2022-11-12T12:24:24.110Z,8.25
2022-11-12T12:26:56.398Z,6.85
2022-11-12T12:32:24.503Z,10.60
2022-11-12T12:35:15.554Z,9.23
2022-11-12T12:37:57.072Z,13.00
2022-11-12T12:40:35.664Z,9.07
2022-11-12T12:45:42.365Z,13.65
2022-11-12T12:48:15.185Z,7.95
2022-11-12T12:50:42.953Z,9.32
2022-11-12T12:53:12.623Z,8.30
2022-11-12T12:55:45.335Z,7.97
2022-11-12T12:58:27.212Z,6.75
2022-11-12T13:01:27.195Z,8.38
2022-11-12T13:03:59.306Z,13.38
2022-11-12T13:06:27.668Z,10.40
2022-11-12T13:09:12.530Z,11.27
2022-11-12T13:14:38.590Z,12.65
2022-11-12T13:17:10.861Z,10.93
2022-11-12T13:22:19.205Z,13.70
2022-11-12T13:25:05.482Z,12.50
2022-11-12T13:27:52.289Z,11.65
2022-11-12T13:30:20.664Z,15.02
2022-11-12T13:32:47.225Z,10.35
2022-11-12T13:35:21.242Z,8.27
2022-11-12T13:38:04.844Z,14.73
2022-11-12T13:40:54.940Z,10.23
2022-11-12T13:43:39.093Z,12.52
2022-11-12T13:46:11.284Z,16.85
2022-11-12T13:48:44.539Z,8.95
2022-11-12T13:51:20.119Z,12.52
2022-11-12T13:53:47.064Z,11.38
2022-11-12T13:56:28.596Z,13.77
2022-11-12T13:58:56.016Z,13.10
2022-11-12T14:01:24.332Z,14.10
2022-11-12T14:03:53.248Z,14.20
2022-11-12T14:06:37.971Z,11.52
2022-11-12T14:12:02.225Z,17.17
2022-11-12T14:14:43.796Z,14.18
2022-11-12T14:17:40.968Z,11.32
2022-11-12T14:20:26.236Z,11.38
2022-11-12T14:22:54.232Z,10.20
2022-11-12T14:25:26.077Z,12.77
2022-11-12T14:27:54.447Z,8.48
2022-11-12T14:30:32.410Z,10.55
2022-11-12T14:33:09.568Z,8.70
2022-11-12T14:35:38.033Z,9.88
2022-11-12T14:38:06.805Z,13.05
2022-11-12T14:40:37.506Z,11.02
2022-11-12T14:43:04.752Z,10.70
2022-11-12T14:45:35.132Z,13.30
2022-11-12T14:48:02.204Z,11.13
2022-11-12T14:50:35.910Z,18.20
2022-11-12T14:53:13.869Z,10.38
2022-11-12T14:55:43.862Z,17.13
2022-11-12T14:58:15.956Z,13.75
2022-11-12T15:00:45.588Z,17.00
2022-11-12T15:03:17.559Z,17.52
2022-11-12T15:05:55.621Z,9.98
2022-11-12T15:08:40.135Z,12.10
2022-11-12T15:11:22.084Z,14.40
2022-11-12T15:13:50.472Z,14.00
2022-11-12T15:16:36.588Z,17.52
2022-11-12T15:19:09.238Z,14.90
2022-11-12T15:21:36.664Z,13.52
2022-11-12T15:24:16.287Z,12.75
2022-11-12T15:26:45.611Z,13.35
2022-11-12T15:29:19.162Z,13.25
2022-11-12T15:31:51.523Z,12.05
2022-11-12T15:34:24.342Z,11.38
2022-11-12T15:36:51.123Z,12.50
2022-11-12T15:39:18.255Z,12.63
2022-11-12T15:41:44.841Z,13.90
2022-11-12T15:44:12.288Z,15.73
2022-11-12T15:46:39.027Z,15.48
2022-11-12T15:49:14.663Z,13.70
2022-11-12T15:51:41.318Z,11.57
2022-11-12T15:54:07.965Z,9.00
2022-11-12T15:56:34.558Z,14.20
2022-11-12T15:59:01.328Z,10.38
2022-11-12T16:01:27.954Z,14.75
2022-11-12T16:03:54.561Z,14.25
2022-11-12T16:06:21.113Z,16.10
2022-11-12T16:08:50.887Z,14.55
2022-11-12T16:11:35.733Z,11.63
2022-11-12T16:16:34.972Z,20.23
2022-11-12T16:19:01.669Z,12.48
2022-11-12T16:21:28.353Z,14.88
2022-11-12T16:23:55.110Z,15.80
2022-11-12T16:26:28.168Z,13.60
2022-11-12T16:28:54.838Z,13.90
2022-11-12T16:31:21.981Z,12.88
2022-11-12T16:33:48.854Z,14.30
2022-11-12T16:36:16.435Z,12.98
2022-11-12T16:38:43.454Z,10.55
2022-11-12T16:41:12.039Z,17.02
2022-11-12T16:43:39.153Z,11.60
2022-11-12T16:46:36.511Z,14.50
2022-11-12T16:49:03.407Z,12.52
2022-11-12T16:51:30.004Z,12.50
2022-11-12T16:53:56.656Z,13.27
2022-11-12T16:56:23.641Z,10.48
2022-11-12T16:58:50.751Z,13.18
2022-11-12T17:01:24.875Z,13.30
2022-11-12T17:03:53.147Z,11.93
2022-11-12T17:06:20.537Z,14.07
2022-11-12T17:08:48.140Z,12.50
2022-11-12T17:11:15.803Z,11.48
2022-11-12T17:13:42.730Z,9.52
2022-11-12T17:16:11.013Z,10.48
2022-11-12T17:18:38.599Z,13.05
2022-11-12T17:21:10.274Z,11.77
2022-11-12T17:23:40.371Z,8.45
2022-11-12T17:26:10.100Z,11.10
2022-11-12T17:28:37.465Z,7.70
2022-11-12T17:31:11.066Z,9.20
2022-11-12T17:33:39.354Z,9.07
2022-11-12T17:36:07.782Z,10.00
2022-11-12T17:38:34.481Z,9.73
2022-11-12T17:41:01.362Z,12.65
2022-11-12T17:43:28.511Z,10.38
2022-11-12T17:45:56.442Z,10.88
2022-11-12T17:48:23.670Z,8.55
2022-11-12T17:50:51.678Z,11.80
2022-11-12T17:53:18.580Z,11.00
2022-11-12T17:55:45.191Z,10.38
2022-11-12T17:58:11.761Z,8.77
2022-11-12T18:00:39.246Z,10.98
2022-11-12T18:03:05.878Z,9.88
2022-11-12T18:05:32.522Z,9.18
2022-11-12T18:07:59.985Z,9.27
2022-11-12T18:10:26.797Z,9.77
2022-11-12T18:12:53.465Z,12.13
2022-11-12T18:15:20.215Z,10.30
2022-11-12T18:17:46.874Z,11.10
2022-11-12T18:20:13.499Z,8.43
2022-11-12T18:22:44.771Z,7.95
2022-11-12T18:25:12.438Z,9.55
2022-11-12T18:27:38.988Z,11.93
2022-11-12T18:30:06.120Z,11.13
2022-11-12T18:32:32.771Z,8.18
2022-11-12T18:34:59.367Z,7.97
2022-11-12T18:37:25.919Z,9.00
2022-11-12T18:39:52.646Z,8.35
2022-11-12T18:42:19.248Z,11.20
2022-11-12T18:44:45.788Z,7.50
2022-11-12T18:47:12.460Z,9.65
2022-11-12T18:49:38.968Z,9.00
2022-11-12T18:52:05.687Z,7.60
2022-11-12T18:54:32.248Z,9.38
2022-11-12T18:56:58.806Z,7.47
2022-11-12T18:59:30.540Z,8.77
2022-11-12T19:02:00.082Z,8.43
2022-11-12T19:04:26.795Z,11.63
2022-11-12T19:06:53.426Z,9.93
2022-11-12T19:09:20.041Z,8.13
2022-11-12T19:11:46.623Z,8.00
2022-11-12T19:14:13.332Z,9.43
2022-11-12T19:16:44.823Z,9.15
2022-11-12T19:19:12.639Z,9.50
2022-11-12T19:21:39.321Z,10.18
2022-11-12T19:24:06.532Z,7.68
2022-11-12T19:26:33.214Z,10.38
2022-11-12T19:28:59.917Z,7.57
2022-11-12T19:31:28.237Z,7.57
2022-11-12T19:33:55.650Z,7.75
2022-11-12T19:36:24.984Z,9.20
2022-11-12T19:38:59.071Z,7.60
2022-11-12T19:41:26.124Z,6.03
2022-11-12T19:43:52.794Z,6.70
2022-11-12T19:46:20.408Z,6.93
2022-11-12T19:48:47.325Z,7.28
2022-11-12T19:51:14.094Z,7.97
2022-11-12T19:53:44.777Z,8.45
2022-11-12T19:56:13.839Z,7.18
2022-11-12T19:58:45.049Z,7.18
2022-11-12T20:01:14.275Z,7.97
2022-11-12T20:03:41.023Z,8.85
2022-11-12T20:06:19.420Z,9.82
2022-11-12T20:08:46.577Z,8.40
2022-11-12T20:11:13.666Z,8.82
2022-11-12T20:13:40.364Z,7.32
2022-11-12T20:16:13.144Z,8.80
2022-11-12T20:18:40.156Z,7.18
2022-11-12T20:21:07.860Z,10.60
2022-11-12T20:23:35.408Z,6.93
2022-11-12T20:26:13.269Z,5.72
2022-11-12T20:28:41.955Z,6.97
2022-11-12T20:31:14.210Z,8.23
2022-11-12T20:33:42.692Z,7.75
2022-11-12T20:36:15.076Z,8.82
2022-11-12T20:38:43.895Z,7.68
2022-11-12T20:41:15.864Z,9.95
2022-11-12T20:43:42.729Z,7.18
2022-11-12T20:46:11.141Z,6.78
2022-11-12T20:48:43.092Z,9.20
2022-11-12T20:51:24.225Z,11.05
2022-11-12T20:53:58.871Z,12.38
2022-11-12T20:56:28.072Z,9.52
2022-11-12T20:58:54.731Z,9.43
2022-11-12T21:01:23.207Z,9.80
2022-11-12T21:03:50.179Z,10.85
2022-11-12T21:06:19.527Z,11.40
2022-11-12T21:08:46.354Z,10.02
2022-11-12T21:11:17.785Z,10.93
2022-11-12T21:13:44.570Z,11.23
2022-11-12T21:16:12.480Z,10.15
2022-11-12T21:18:39.889Z,9.48
2022-11-12T21:21:18.305Z,10.48
2022-11-12T21:23:45.540Z,11.10
2022-11-12T21:26:30.062Z,10.30
2022-11-12T21:28:57.274Z,9.73
2022-11-12T21:31:28.665Z,10.32
2022-11-12T21:34:04.523Z,8.93
2022-11-12T21:36:32.444Z,10.93
2022-11-12T21:38:59.007Z,8.82
2022-11-12T21:41:27.629Z,7.70
2022-11-12T21:43:55.179Z,9.02
2022-11-12T21:46:24.601Z,8.43
2022-11-12T21:48:55.113Z,8.70
2022-11-12T21:51:28.665Z,8.45
2022-11-12T21:53:57.799Z,9.68
2022-11-12T21:56:28.575Z,10.15
2022-11-12T21:58:59.504Z,9.80
2022-11-12T22:01:28.707Z,7.35
2022-11-12T22:03:57.245Z,7.05
2022-11-12T22:06:26.553Z,8.43
2022-11-12T22:08:57.180Z,7.50
2022-11-12T22:11:24.367Z,7.55
2022-11-12T22:13:50.993Z,7.13
2022-11-12T22:16:21.252Z,8.18
2022-11-12T22:18:50.309Z,6.63
2022-11-12T22:21:22.371Z,7.32
2022-11-12T22:23:49.416Z,7.82
2022-11-12T22:26:20.990Z,8.13
2022-11-12T22:28:48.232Z,7.40
2022-11-12T22:31:29.446Z,7.25
2022-11-12T22:33:58.213Z,7.25
2022-11-12T22:36:29.904Z,7.93
2022-11-12T22:38:57.286Z,6.30
2022-11-12T22:41:26.317Z,7.43
2022-11-12T22:44:00.153Z,8.30
2022-11-12T22:46:34.940Z,7.40
2022-11-12T22:49:03.483Z,7.15
2022-11-12T22:51:32.258Z,7.85
2022-11-12T22:54:04.720Z,6.97
2022-11-12T22:56:35.243Z,7.15
2022-11-12T22:59:08.247Z,7.15
2022-11-12T23:01:35.774Z,7.38
2022-11-12T23:04:05.086Z,7.07
2022-11-12T23:06:31.996Z,7.82
2022-11-12T23:08:59.705Z,6.00
2022-11-12T23:11:26.704Z,7.45
2022-11-12T23:13:54.279Z,7.28
2022-11-12T23:16:26.889Z,7.65
2022-11-12T23:18:55.666Z,7.25
2022-11-12T23:21:27.578Z,6.97
2022-11-12T23:23:56.371Z,6.97
2022-11-12T23:26:25.657Z,7.43
2022-11-12T23:28:52.410Z,6.88
2022-11-12T23:31:25.098Z,7.30
2022-11-12T23:33:53.655Z,7.18
2022-11-12T23:36:21.755Z,7.53
2022-11-12T23:38:48.494Z,8.50
2022-11-12T23:41:17.426Z,7.00
2022-11-12T23:43:44.526Z,7.10
2022-11-12T23:46:12.012Z,7.32
2022-11-12T23:48:38.848Z,6.55
2022-11-12T23:51:09.839Z,6.97
2022-11-12T23:53:37.446Z,6.03
2022-11-12T23:56:05.688Z,7.65
2022-11-12T23:58:32.859Z,6.78
